sensor_id;sensor_type;location;lat;lon;timestamp;P1;durP1;ratioP1;P2;durP2;ratioP2
2956;SDS011;1488;51.548;7.222;2022-07-12T00:01:24;1.33;;;1.10;;
2956;SDS011;1488;51.548;7.222;2022-07-12T00:03:50;1.10;;;0.90;;
2956;SDS011;1488;51.548;7.222;2022-07-12T00:06:17;1.00;;;0.80;;
2956;SDS011;1488;51.548;7.222;2022-07-12T00:08:44;1.07;;;0.90;;
2956;SDS011;1488;51.548;7.222;2022-07-12T00:11:11;1.10;;;1.00;;
2956;SDS011;1488;51.548;7.222;2022-07-12T00:13:38;1.00;;;0.80;;
2956;SDS011;1488;51.548;7.222;2022-07-12T00:16:06;1.20;;;1.00;;
2956;SDS011;1488;51.548;7.222;2022-07-12T00:18:33;1.27;;;0.90;;
2956;SDS011;1488;51.548;7.222;2022-07-12T00:21:00;1.10;;;0.90;;
2956;SDS011;1488;51.548;7.222;2022-07-12T00:23:27;1.00;;;0.80;;
2956;SDS011;1488;51.548;7.222;2022-07-12T00:25:54;1.00;;;0.80;;
2956;SDS011;1488;51.548;7.222;2022-07-12T00:28:21;1.47;;;1.00;;
2956;SDS011;1488;51.548;7.222;2022-07-12T00:30:47;1.10;;;1.00;;
2956;SDS011;1488;51.548;7.222;2022-07-12T00:33:16;1.07;;;0.93;;
2956;SDS011;1488;51.548;7.222;2022-07-12T00:35:43;3.97;;;0.90;;
2956;SDS011;1488;51.548;7.222;2022-07-12T00:38:09;1.20;;;0.90;;
2956;SDS011;1488;51.548;7.222;2022-07-12T00:40:36;1.10;;;0.87;;
2956;SDS011;1488;51.548;7.222;2022-07-12T00:43:03;1.00;;;0.90;;
2956;SDS011;1488;51.548;7.222;2022-07-12T00:45:30;1.00;;;0.90;;
2956;SDS011;1488;51.548;7.222;2022-07-12T00:47:57;1.00;;;0.90;;
2956;SDS011;1488;51.548;7.222;2022-07-12T00:50:26;1.10;;;1.00;;
2956;SDS011;1488;51.548;7.222;2022-07-12T00:52:54;1.30;;;0.90;;
2956;SDS011;1488;51.548;7.222;2022-07-12T00:55:21;1.40;;;0.80;;
2956;SDS011;1488;51.548;7.222;2022-07-12T00:57:50;1.20;;;0.80;;
2956;SDS011;1488;51.548;7.222;2022-07-12T01:00:19;1.00;;;0.90;;
2956;SDS011;1488;51.548;7.222;2022-07-12T01:02:47;1.00;;;0.80;;
2956;SDS011;1488;51.548;7.222;2022-07-12T01:05:14;1.00;;;0.80;;
2956;SDS011;1488;51.548;7.222;2022-07-12T01:07:43;1.57;;;1.00;;
2956;SDS011;1488;51.548;7.222;2022-07-12T01:10:11;1.47;;;0.90;;
2956;SDS011;1488;51.548;7.222;2022-07-12T01:12:38;1.83;;;0.80;;
2956;SDS011;1488;51.548;7.222;2022-07-12T01:15:05;0.90;;;0.70;;
2956;SDS011;1488;51.548;7.222;2022-07-12T01:17:33;1.27;;;0.90;;
2956;SDS011;1488;51.548;7.222;2022-07-12T01:20:02;1.00;;;0.80;;
2956;SDS011;1488;51.548;7.222;2022-07-12T01:22:31;1.00;;;0.80;;
2956;SDS011;1488;51.548;7.222;2022-07-12T01:25:02;1.17;;;1.07;;
2956;SDS011;1488;51.548;7.222;2022-07-12T01:27:31;1.20;;;1.00;;
2956;SDS011;1488;51.548;7.222;2022-07-12T01:29:57;1.00;;;0.80;;
2956;SDS011;1488;51.548;7.222;2022-07-12T01:32:26;1.00;;;0.90;;
2956;SDS011;1488;51.548;7.222;2022-07-12T01:34:55;0.93;;;0.73;;
2956;SDS011;1488;51.548;7.222;2022-07-12T01:37:23;1.10;;;0.93;;
2956;SDS011;1488;51.548;7.222;2022-07-12T01:39:52;1.10;;;1.00;;
2956;SDS011;1488;51.548;7.222;2022-07-12T01:42:21;1.00;;;0.90;;
2956;SDS011;1488;51.548;7.222;2022-07-12T01:44:49;1.00;;;0.83;;
2956;SDS011;1488;51.548;7.222;2022-07-12T01:47:17;1.00;;;0.80;;
2956;SDS011;1488;51.548;7.222;2022-07-12T01:49:44;1.00;;;0.80;;
2956;SDS011;1488;51.548;7.222;2022-07-12T01:52:11;1.20;;;0.97;;
2956;SDS011;1488;51.548;7.222;2022-07-12T01:54:39;0.90;;;0.80;;
2956;SDS011;1488;51.548;7.222;2022-07-12T01:57:06;1.00;;;0.73;;
2956;SDS011;1488;51.548;7.222;2022-07-12T01:59:34;0.90;;;0.70;;
2956;SDS011;1488;51.548;7.222;2022-07-12T02:02:02;1.00;;;0.80;;
2956;SDS011;1488;51.548;7.222;2022-07-12T02:04:29;1.00;;;0.83;;
2956;SDS011;1488;51.548;7.222;2022-07-12T02:06:56;0.97;;;0.80;;
2956;SDS011;1488;51.548;7.222;2022-07-12T02:09:23;1.10;;;1.00;;
2956;SDS011;1488;51.548;7.222;2022-07-12T02:11:50;1.03;;;0.83;;
2956;SDS011;1488;51.548;7.222;2022-07-12T02:14:17;1.10;;;0.90;;
2956;SDS011;1488;51.548;7.222;2022-07-12T02:16:45;1.00;;;0.80;;
2956;SDS011;1488;51.548;7.222;2022-07-12T02:19:13;1.07;;;0.80;;
2956;SDS011;1488;51.548;7.222;2022-07-12T02:21:40;1.10;;;0.90;;
2956;SDS011;1488;51.548;7.222;2022-07-12T02:24:07;1.10;;;1.00;;
2956;SDS011;1488;51.548;7.222;2022-07-12T02:26:34;0.90;;;0.73;;
2956;SDS011;1488;51.548;7.222;2022-07-12T02:29:02;1.10;;;0.80;;
2956;SDS011;1488;51.548;7.222;2022-07-12T02:31:30;1.00;;;0.80;;
2956;SDS011;1488;51.548;7.222;2022-07-12T02:33:58;1.00;;;0.70;;
2956;SDS011;1488;51.548;7.222;2022-07-12T02:36:25;1.03;;;0.80;;
2956;SDS011;1488;51.548;7.222;2022-07-12T02:38:53;1.10;;;0.90;;
2956;SDS011;1488;51.548;7.222;2022-07-12T02:41:20;0.90;;;0.70;;
2956;SDS011;1488;51.548;7.222;2022-07-12T02:43:47;1.37;;;0.93;;
2956;SDS011;1488;51.548;7.222;2022-07-12T02:46:14;1.10;;;0.80;;
2956;SDS011;1488;51.548;7.222;2022-07-12T02:48:41;1.03;;;0.80;;
2956;SDS011;1488;51.548;7.222;2022-07-12T02:51:10;1.20;;;0.77;;
2956;SDS011;1488;51.548;7.222;2022-07-12T02:53:37;1.00;;;0.87;;
2956;SDS011;1488;51.548;7.222;2022-07-12T02:56:04;1.00;;;0.90;;
2956;SDS011;1488;51.548;7.222;2022-07-12T02:58:31;1.00;;;0.80;;
2956;SDS011;1488;51.548;7.222;2022-07-12T03:01:00;1.00;;;0.80;;
2956;SDS011;1488;51.548;7.222;2022-07-12T03:03:27;1.00;;;0.90;;
2956;SDS011;1488;51.548;7.222;2022-07-12T03:05:53;1.00;;;0.80;;
2956;SDS011;1488;51.548;7.222;2022-07-12T03:08:22;1.10;;;0.90;;
2956;SDS011;1488;51.548;7.222;2022-07-12T03:10:49;1.00;;;0.80;;
2956;SDS011;1488;51.548;7.222;2022-07-12T03:13:16;1.10;;;0.90;;
2956;SDS011;1488;51.548;7.222;2022-07-12T03:15:43;1.03;;;0.83;;
2956;SDS011;1488;51.548;7.222;2022-07-12T03:18:11;1.10;;;0.80;;
2956;SDS011;1488;51.548;7.222;2022-07-12T03:20:38;0.90;;;0.80;;
2956;SDS011;1488;51.548;7.222;2022-07-12T03:23:05;1.43;;;0.90;;
2956;SDS011;1488;51.548;7.222;2022-07-12T03:25:33;1.10;;;0.90;;
2956;SDS011;1488;51.548;7.222;2022-07-12T03:28:00;1.10;;;0.90;;
2956;SDS011;1488;51.548;7.222;2022-07-12T03:30:27;1.00;;;0.80;;
2956;SDS011;1488;51.548;7.222;2022-07-12T03:32:54;0.97;;;0.80;;
2956;SDS011;1488;51.548;7.222;2022-07-12T03:35:21;1.00;;;0.80;;
2956;SDS011;1488;51.548;7.222;2022-07-12T03:37:48;1.00;;;0.70;;
2956;SDS011;1488;51.548;7.222;2022-07-12T03:40:17;0.93;;;0.77;;
2956;SDS011;1488;51.548;7.222;2022-07-12T03:42:47;1.10;;;0.83;;
2956;SDS011;1488;51.548;7.222;2022-07-12T03:45:14;1.00;;;0.80;;
2956;SDS011;1488;51.548;7.222;2022-07-12T03:47:41;1.00;;;0.90;;
2956;SDS011;1488;51.548;7.222;2022-07-12T03:50:09;1.00;;;0.80;;
2956;SDS011;1488;51.548;7.222;2022-07-12T03:52:37;1.70;;;0.83;;
2956;SDS011;1488;51.548;7.222;2022-07-12T03:55:05;1.00;;;0.80;;
2956;SDS011;1488;51.548;7.222;2022-07-12T03:57:32;1.00;;;0.90;;
2956;SDS011;1488;51.548;7.222;2022-07-12T04:00:01;1.00;;;0.90;;
2956;SDS011;1488;51.548;7.222;2022-07-12T04:02:29;1.03;;;0.90;;
2956;SDS011;1488;51.548;7.222;2022-07-12T04:04:56;0.90;;;0.73;;
2956;SDS011;1488;51.548;7.222;2022-07-12T04:07:23;1.20;;;1.10;;
2956;SDS011;1488;51.548;7.222;2022-07-12T04:09:50;1.00;;;0.83;;
2956;SDS011;1488;51.548;7.222;2022-07-12T04:12:16;1.10;;;1.00;;
2956;SDS011;1488;51.548;7.222;2022-07-12T04:14:43;1.00;;;0.80;;
2956;SDS011;1488;51.548;7.222;2022-07-12T04:17:12;1.00;;;0.90;;
2956;SDS011;1488;51.548;7.222;2022-07-12T04:19:38;0.93;;;0.70;;
2956;SDS011;1488;51.548;7.222;2022-07-12T04:22:05;1.00;;;0.80;;
2956;SDS011;1488;51.548;7.222;2022-07-12T04:24:32;1.00;;;0.80;;
2956;SDS011;1488;51.548;7.222;2022-07-12T04:26:59;1.00;;;0.80;;
2956;SDS011;1488;51.548;7.222;2022-07-12T04:29:26;1.93;;;1.83;;
2956;SDS011;1488;51.548;7.222;2022-07-12T15:58:35;2.77;;;2.57;;
2956;SDS011;1488;51.548;7.222;2022-07-12T16:01:03;2.30;;;2.10;;
2956;SDS011;1488;51.548;7.222;2022-07-12T16:03:31;2.50;;;2.30;;
2956;SDS011;1488;51.548;7.222;2022-07-12T16:06:00;2.67;;;2.00;;
2956;SDS011;1488;51.548;7.222;2022-07-12T16:08:28;2.10;;;2.00;;
2956;SDS011;1488;51.548;7.222;2022-07-12T16:10:55;2.73;;;2.53;;
2956;SDS011;1488;51.548;7.222;2022-07-12T16:13:23;2.60;;;2.40;;
2956;SDS011;1488;51.548;7.222;2022-07-12T16:15:50;2.00;;;1.90;;
2956;SDS011;1488;51.548;7.222;2022-07-12T16:18:17;2.70;;;2.50;;
2956;SDS011;1488;51.548;7.222;2022-07-12T16:20:44;2.60;;;2.40;;
2956;SDS011;1488;51.548;7.222;2022-07-12T16:23:11;2.57;;;2.37;;
2956;SDS011;1488;51.548;7.222;2022-07-12T16:25:39;2.27;;;2.17;;
2956;SDS011;1488;51.548;7.222;2022-07-12T16:28:06;2.40;;;2.20;;
2956;SDS011;1488;51.548;7.222;2022-07-12T16:30:34;2.17;;;2.07;;
2956;SDS011;1488;51.548;7.222;2022-07-12T16:33:03;2.03;;;1.93;;
2956;SDS011;1488;51.548;7.222;2022-07-12T16:35:30;3.20;;;2.50;;
2956;SDS011;1488;51.548;7.222;2022-07-12T16:37:57;2.43;;;2.10;;
2956;SDS011;1488;51.548;7.222;2022-07-12T16:40:24;2.23;;;1.90;;
2956;SDS011;1488;51.548;7.222;2022-07-12T16:42:51;1.93;;;1.83;;
2956;SDS011;1488;51.548;7.222;2022-07-12T16:45:20;2.90;;;2.20;;
2956;SDS011;1488;51.548;7.222;2022-07-12T16:47:48;2.20;;;2.10;;
2956;SDS011;1488;51.548;7.222;2022-07-12T16:50:15;2.20;;;2.03;;
2956;SDS011;1488;51.548;7.222;2022-07-12T16:52:42;1.90;;;1.80;;
2956;SDS011;1488;51.548;7.222;2022-07-12T16:55:09;1.87;;;1.77;;
2956;SDS011;1488;51.548;7.222;2022-07-12T16:57:36;2.00;;;1.80;;
2956;SDS011;1488;51.548;7.222;2022-07-12T17:00:04;2.23;;;2.03;;
2956;SDS011;1488;51.548;7.222;2022-07-12T17:02:35;2.10;;;1.90;;
2956;SDS011;1488;51.548;7.222;2022-07-12T17:05:04;2.03;;;1.80;;
2956;SDS011;1488;51.548;7.222;2022-07-12T17:07:32;2.03;;;1.83;;
2956;SDS011;1488;51.548;7.222;2022-07-12T17:09:59;2.80;;;2.50;;
2956;SDS011;1488;51.548;7.222;2022-07-12T17:12:26;2.57;;;2.37;;
2956;SDS011;1488;51.548;7.222;2022-07-12T17:14:53;2.10;;;1.63;;
2956;SDS011;1488;51.548;7.222;2022-07-12T17:17:20;2.10;;;2.00;;
2956;SDS011;1488;51.548;7.222;2022-07-12T17:19:48;2.13;;;1.90;;
2956;SDS011;1488;51.548;7.222;2022-07-12T17:22:17;2.30;;;2.10;;
2956;SDS011;1488;51.548;7.222;2022-07-12T17:24:44;1.97;;;1.87;;
2956;SDS011;1488;51.548;7.222;2022-07-12T17:27:11;1.83;;;1.73;;
2956;SDS011;1488;51.548;7.222;2022-07-12T17:29:39;2.07;;;1.87;;
2956;SDS011;1488;51.548;7.222;2022-07-12T17:32:05;2.03;;;1.93;;
2956;SDS011;1488;51.548;7.222;2022-07-12T17:34:32;2.10;;;1.90;;
2956;SDS011;1488;51.548;7.222;2022-07-12T17:36:59;2.47;;;1.73;;
2956;SDS011;1488;51.548;7.222;2022-07-12T17:39:28;2.17;;;2.00;;
2956;SDS011;1488;51.548;7.222;2022-07-12T17:41:55;2.07;;;1.87;;
2956;SDS011;1488;51.548;7.222;2022-07-12T17:44:22;1.53;;;1.43;;
2956;SDS011;1488;51.548;7.222;2022-07-12T17:46:52;1.60;;;1.50;;
2956;SDS011;1488;51.548;7.222;2022-07-12T17:49:19;2.13;;;1.83;;
2956;SDS011;1488;51.548;7.222;2022-07-12T17:51:46;4.10;;;2.00;;
2956;SDS011;1488;51.548;7.222;2022-07-12T17:54:13;2.77;;;2.57;;
2956;SDS011;1488;51.548;7.222;2022-07-12T17:56:42;2.30;;;2.10;;
2956;SDS011;1488;51.548;7.222;2022-07-12T17:59:09;6.23;;;2.20;;
2956;SDS011;1488;51.548;7.222;2022-07-12T18:01:35;3.83;;;2.00;;
2956;SDS011;1488;51.548;7.222;2022-07-12T18:04:02;5.43;;;1.70;;
2956;SDS011;1488;51.548;7.222;2022-07-12T18:06:29;2.40;;;2.13;;
2956;SDS011;1488;51.548;7.222;2022-07-12T18:08:58;1.97;;;1.77;;
2956;SDS011;1488;51.548;7.222;2022-07-12T18:11:25;2.93;;;1.70;;
2956;SDS011;1488;51.548;7.222;2022-07-12T18:14:10;3.43;;;1.90;;
2956;SDS011;1488;51.548;7.222;2022-07-12T18:16:55;1.83;;;1.70;;
2956;SDS011;1488;51.548;7.222;2022-07-12T18:19:39;1.97;;;1.77;;
2956;SDS011;1488;51.548;7.222;2022-07-12T18:22:05;1.97;;;1.77;;
2956;SDS011;1488;51.548;7.222;2022-07-12T18:24:32;2.53;;;2.00;;
2956;SDS011;1488;51.548;7.222;2022-07-12T18:26:59;2.30;;;2.10;;
2956;SDS011;1488;51.548;7.222;2022-07-12T18:29:28;3.20;;;1.67;;
2956;SDS011;1488;51.548;7.222;2022-07-12T18:31:55;2.00;;;1.83;;
2956;SDS011;1488;51.548;7.222;2022-07-12T18:34:22;2.43;;;1.90;;
2956;SDS011;1488;51.548;7.222;2022-07-12T18:36:49;2.00;;;1.80;;
2956;SDS011;1488;51.548;7.222;2022-07-12T18:39:16;2.70;;;1.90;;
2956;SDS011;1488;51.548;7.222;2022-07-12T18:41:42;2.00;;;1.90;;
2956;SDS011;1488;51.548;7.222;2022-07-12T18:44:09;2.30;;;1.50;;
2956;SDS011;1488;51.548;7.222;2022-07-12T18:46:38;2.00;;;1.80;;
2956;SDS011;1488;51.548;7.222;2022-07-12T18:49:04;2.60;;;1.97;;
2956;SDS011;1488;51.548;7.222;2022-07-12T18:51:31;2.00;;;1.90;;
2956;SDS011;1488;51.548;7.222;2022-07-12T18:53:59;2.57;;;2.00;;
2956;SDS011;1488;51.548;7.222;2022-07-12T18:56:25;1.80;;;1.70;;
2956;SDS011;1488;51.548;7.222;2022-07-12T18:58:52;2.00;;;1.60;;
2956;SDS011;1488;51.548;7.222;2022-07-12T19:01:19;3.10;;;1.87;;
2956;SDS011;1488;51.548;7.222;2022-07-12T19:03:48;4.23;;;1.90;;
2956;SDS011;1488;51.548;7.222;2022-07-12T19:06:15;1.97;;;1.60;;
2956;SDS011;1488;51.548;7.222;2022-07-12T19:08:42;5.73;;;2.17;;
2956;SDS011;1488;51.548;7.222;2022-07-12T19:11:09;2.20;;;2.00;;
2956;SDS011;1488;51.548;7.222;2022-07-12T19:13:36;1.80;;;1.70;;
2956;SDS011;1488;51.548;7.222;2022-07-12T19:16:03;1.57;;;1.47;;
2956;SDS011;1488;51.548;7.222;2022-07-12T19:18:31;2.37;;;1.83;;
2956;SDS011;1488;51.548;7.222;2022-07-12T19:20:59;3.20;;;1.70;;
2956;SDS011;1488;51.548;7.222;2022-07-12T19:23:26;2.03;;;1.70;;
2956;SDS011;1488;51.548;7.222;2022-07-12T19:25:53;2.63;;;1.77;;
2956;SDS011;1488;51.548;7.222;2022-07-12T19:28:20;2.20;;;1.63;;
2956;SDS011;1488;51.548;7.222;2022-07-12T19:30:47;2.23;;;1.70;;
2956;SDS011;1488;51.548;7.222;2022-07-12T19:33:13;1.47;;;1.30;;
2956;SDS011;1488;51.548;7.222;2022-07-12T19:35:40;1.80;;;1.70;;
2956;SDS011;1488;51.548;7.222;2022-07-12T19:38:08;4.30;;;1.77;;
2956;SDS011;1488;51.548;7.222;2022-07-12T19:40:35;3.43;;;2.00;;
2956;SDS011;1488;51.548;7.222;2022-07-12T19:43:02;2.53;;;1.77;;
2956;SDS011;1488;51.548;7.222;2022-07-12T19:45:30;2.23;;;1.87;;
2956;SDS011;1488;51.548;7.222;2022-07-12T19:47:57;2.97;;;1.73;;
2956;SDS011;1488;51.548;7.222;2022-07-12T19:50:24;3.70;;;1.63;;
2956;SDS011;1488;51.548;7.222;2022-07-12T19:52:50;1.83;;;1.60;;
2956;SDS011;1488;51.548;7.222;2022-07-12T19:55:19;1.70;;;1.47;;
2956;SDS011;1488;51.548;7.222;2022-07-12T19:57:46;2.43;;;1.80;;
2956;SDS011;1488;51.548;7.222;2022-07-12T20:00:14;2.67;;;1.70;;
2956;SDS011;1488;51.548;7.222;2022-07-12T20:02:41;2.37;;;1.50;;
2956;SDS011;1488;51.548;7.222;2022-07-12T20:05:08;1.70;;;1.60;;
2956;SDS011;1488;51.548;7.222;2022-07-12T20:07:35;2.90;;;1.87;;
2956;SDS011;1488;51.548;7.222;2022-07-12T20:10:02;3.80;;;1.77;;
2956;SDS011;1488;51.548;7.222;2022-07-12T20:12:31;2.33;;;2.13;;
2956;SDS011;1488;51.548;7.222;2022-07-12T20:14:58;3.63;;;1.90;;
2956;SDS011;1488;51.548;7.222;2022-07-12T20:17:25;1.90;;;1.70;;
2956;SDS011;1488;51.548;7.222;2022-07-12T20:19:52;5.40;;;1.80;;
2956;SDS011;1488;51.548;7.222;2022-07-12T20:22:19;2.77;;;1.77;;
2956;SDS011;1488;51.548;7.222;2022-07-12T20:24:46;1.80;;;1.60;;
2956;SDS011;1488;51.548;7.222;2022-07-12T20:27:12;3.97;;;1.87;;
2956;SDS011;1488;51.548;7.222;2022-07-12T20:29:41;2.57;;;1.57;;
2956;SDS011;1488;51.548;7.222;2022-07-12T20:32:07;2.60;;;1.60;;
2956;SDS011;1488;51.548;7.222;2022-07-12T20:34:35;2.93;;;1.80;;
2956;SDS011;1488;51.548;7.222;2022-07-12T20:37:02;3.63;;;1.93;;
2956;SDS011;1488;51.548;7.222;2022-07-12T20:39:31;5.10;;;1.80;;
2956;SDS011;1488;51.548;7.222;2022-07-12T20:41:59;3.13;;;1.53;;
2956;SDS011;1488;51.548;7.222;2022-07-12T20:44:28;2.70;;;1.67;;
2956;SDS011;1488;51.548;7.222;2022-07-12T20:46:57;2.63;;;1.80;;
2956;SDS011;1488;51.548;7.222;2022-07-12T20:49:24;1.80;;;1.70;;
2956;SDS011;1488;51.548;7.222;2022-07-12T20:51:54;2.03;;;1.60;;
2956;SDS011;1488;51.548;7.222;2022-07-12T20:54:21;2.30;;;1.77;;
2956;SDS011;1488;51.548;7.222;2022-07-12T20:56:50;1.70;;;1.60;;
2956;SDS011;1488;51.548;7.222;2022-07-12T20:59:19;1.60;;;1.50;;
2956;SDS011;1488;51.548;7.222;2022-07-12T21:01:47;3.10;;;1.53;;
2956;SDS011;1488;51.548;7.222;2022-07-12T21:04:17;1.87;;;1.77;;
2956;SDS011;1488;51.548;7.222;2022-07-12T21:06:45;2.17;;;1.80;;
2956;SDS011;1488;51.548;7.222;2022-07-12T21:09:12;3.20;;;1.83;;
2956;SDS011;1488;51.548;7.222;2022-07-12T21:11:39;2.20;;;2.10;;
2956;SDS011;1488;51.548;7.222;2022-07-12T21:14:06;2.80;;;1.73;;
2956;SDS011;1488;51.548;7.222;2022-07-12T21:16:35;2.20;;;2.00;;
2956;SDS011;1488;51.548;7.222;2022-07-12T21:19:05;1.90;;;1.70;;
2956;SDS011;1488;51.548;7.222;2022-07-12T21:21:34;2.90;;;1.90;;
2956;SDS011;1488;51.548;7.222;2022-07-12T21:24:01;2.90;;;1.60;;
2956;SDS011;1488;51.548;7.222;2022-07-12T21:26:28;4.03;;;1.70;;
2956;SDS011;1488;51.548;7.222;2022-07-12T21:28:56;2.47;;;1.70;;
2956;SDS011;1488;51.548;7.222;2022-07-12T21:31:23;2.37;;;1.80;;
2956;SDS011;1488;51.548;7.222;2022-07-12T21:33:51;7.53;;;1.90;;
2956;SDS011;1488;51.548;7.222;2022-07-12T21:36:19;4.00;;;1.97;;
2956;SDS011;1488;51.548;7.222;2022-07-12T21:38:47;1.70;;;1.50;;
2956;SDS011;1488;51.548;7.222;2022-07-12T21:41:14;2.23;;;1.73;;
2956;SDS011;1488;51.548;7.222;2022-07-12T21:43:41;2.37;;;1.83;;
2956;SDS011;1488;51.548;7.222;2022-07-12T21:46:08;2.40;;;2.20;;
2956;SDS011;1488;51.548;7.222;2022-07-12T21:48:36;1.90;;;1.80;;
2956;SDS011;1488;51.548;7.222;2022-07-12T21:51:03;1.87;;;1.77;;
2956;SDS011;1488;51.548;7.222;2022-07-12T21:53:30;1.93;;;1.63;;
2956;SDS011;1488;51.548;7.222;2022-07-12T21:55:58;2.60;;;1.50;;
2956;SDS011;1488;51.548;7.222;2022-07-12T21:58:26;2.20;;;2.00;;
2956;SDS011;1488;51.548;7.222;2022-07-12T22:00:53;1.67;;;1.57;;
2956;SDS011;1488;51.548;7.222;2022-07-12T22:03:21;1.80;;;1.70;;
2956;SDS011;1488;51.548;7.222;2022-07-12T22:05:48;1.90;;;1.63;;
2956;SDS011;1488;51.548;7.222;2022-07-12T22:08:15;2.13;;;2.00;;
2956;SDS011;1488;51.548;7.222;2022-07-12T22:10:42;2.87;;;2.23;;
2956;SDS011;1488;51.548;7.222;2022-07-12T22:13:10;1.73;;;1.63;;
2956;SDS011;1488;51.548;7.222;2022-07-12T22:15:37;2.93;;;2.10;;
2956;SDS011;1488;51.548;7.222;2022-07-12T22:18:03;2.43;;;1.80;;
2956;SDS011;1488;51.548;7.222;2022-07-12T22:20:30;1.80;;;1.70;;
2956;SDS011;1488;51.548;7.222;2022-07-12T22:22:57;1.63;;;1.53;;
2956;SDS011;1488;51.548;7.222;2022-07-12T22:25:24;2.27;;;2.07;;
2956;SDS011;1488;51.548;7.222;2022-07-12T22:27:51;1.70;;;1.60;;
2956;SDS011;1488;51.548;7.222;2022-07-12T22:30:19;2.20;;;2.00;;
2956;SDS011;1488;51.548;7.222;2022-07-12T22:32:46;3.23;;;1.63;;
2956;SDS011;1488;51.548;7.222;2022-07-12T22:35:13;1.90;;;1.80;;
2956;SDS011;1488;51.548;7.222;2022-07-12T22:37:40;2.07;;;1.80;;
2956;SDS011;1488;51.548;7.222;2022-07-12T22:40:08;2.70;;;1.70;;
2956;SDS011;1488;51.548;7.222;2022-07-12T22:42:36;2.00;;;1.90;;
2956;SDS011;1488;51.548;7.222;2022-07-12T22:45:03;1.80;;;1.70;;
2956;SDS011;1488;51.548;7.222;2022-07-12T22:47:32;2.03;;;1.90;;
2956;SDS011;1488;51.548;7.222;2022-07-12T22:49:59;2.10;;;2.00;;
2956;SDS011;1488;51.548;7.222;2022-07-12T22:52:25;3.30;;;2.00;;
2956;SDS011;1488;51.548;7.222;2022-07-12T22:54:51;2.00;;;1.80;;
2956;SDS011;1488;51.548;7.222;2022-07-12T22:57:19;1.60;;;1.50;;
2956;SDS011;1488;51.548;7.222;2022-07-12T22:59:46;1.70;;;1.60;;
2956;SDS011;1488;51.548;7.222;2022-07-12T23:02:13;1.60;;;1.50;;
2956;SDS011;1488;51.548;7.222;2022-07-12T23:04:41;1.70;;;1.60;;
2956;SDS011;1488;51.548;7.222;2022-07-12T23:07:08;1.50;;;1.40;;
2956;SDS011;1488;51.548;7.222;2022-07-12T23:09:35;1.50;;;1.40;;
2956;SDS011;1488;51.548;7.222;2022-07-12T23:12:02;1.90;;;1.80;;
2956;SDS011;1488;51.548;7.222;2022-07-12T23:14:29;1.73;;;1.63;;
2956;SDS011;1488;51.548;7.222;2022-07-12T23:16:56;1.73;;;1.63;;
2956;SDS011;1488;51.548;7.222;2022-07-12T23:19:23;1.60;;;1.50;;
2956;SDS011;1488;51.548;7.222;2022-07-12T23:21:52;2.37;;;1.60;;
2956;SDS011;1488;51.548;7.222;2022-07-12T23:24:19;1.67;;;1.50;;
2956;SDS011;1488;51.548;7.222;2022-07-12T23:26:45;1.60;;;1.50;;
2956;SDS011;1488;51.548;7.222;2022-07-12T23:29:12;2.10;;;1.90;;
2956;SDS011;1488;51.548;7.222;2022-07-12T23:31:39;1.87;;;1.77;;
2956;SDS011;1488;51.548;7.222;2022-07-12T23:34:06;1.63;;;1.53;;
2956;SDS011;1488;51.548;7.222;2022-07-12T23:36:33;1.83;;;1.73;;
2956;SDS011;1488;51.548;7.222;2022-07-12T23:39:02;1.77;;;1.67;;
2956;SDS011;1488;51.548;7.222;2022-07-12T23:41:29;1.60;;;1.50;;
2956;SDS011;1488;51.548;7.222;2022-07-12T23:43:56;2.20;;;2.10;;
2956;SDS011;1488;51.548;7.222;2022-07-12T23:46:23;1.60;;;1.50;;
2956;SDS011;1488;51.548;7.222;2022-07-12T23:48:50;2.07;;;1.90;;
2956;SDS011;1488;51.548;7.222;2022-07-12T23:51:17;2.40;;;2.20;;
2956;SDS011;1488;51.548;7.222;2022-07-12T23:53:44;1.53;;;1.43;;
2956;SDS011;1488;51.548;7.222;2022-07-12T23:56:12;1.60;;;1.50;;
2956;SDS011;1488;51.548;7.222;2022-07-12T23:58:40;2.03;;;1.83;;
